ADDS METAR Data INFO
IDs: Format: Raw Decoded Include TAF

Data at: 0633 UTC 15 Dec 2017

KBJJ 150556Z AUTO 00000KT 5SM BR CLR M14/M16 A3003 RMK AO2 SLP190 I6001 T11391156 11111 21156 58008
KBJJ 150530Z AUTO 26003KT 5SM BR CLR M14/M16 A3005 RMK AO2 T11391161
KBJJ 150520Z AUTO 28003KT 2SM BR CLR M14/M16 A3005 RMK AO2 T11441161
KBJJ 150456Z AUTO 00000KT 4SM BR CLR M14/M16 A3006 RMK AO2 SLP200 T11441161 410061156
KBJJ 150356Z AUTO 00000KT 5SM BR CLR M16/M17 A3006 RMK AO2 SLP200 T11561172
KBJJ 150322Z AUTO 00000KT 3SM BR CLR M14/M16 A3006 RMK AO2 T11441156
KBJJ 150316Z AUTO 00000KT 1 1/4SM BR CLR M15/M16 A3006 RMK AO2 T11501161
KBJJ 150259Z AUTO 00000KT 3/4SM BR CLR M15/M16 A3006 RMK AO2 T11501161
KBJJ 150256Z AUTO 00000KT 1 3/4SM BR CLR M14/M16 A3006 RMK AO2 SLP201 I1000 I3001 T11441156 53001
KBJJ 150152Z AUTO 00000KT 3SM BR CLR M15/M17 A3005 RMK AO2 SLP198 T11501167
KBJJ 150151Z AUTO 00000KT 3SM BR CLR M15/M17 A3005 RMK AO2
KBJJ 150140Z AUTO 00000KT 1 1/2SM BR CLR M14/M15 A3005 RMK AO2 T11391150
KBJJ 150130Z AUTO 00000KT 2 1/2SM BR CLR M13/M15 A3005 RMK AO2 T11281150
KBJJ 150056Z AUTO 00000KT 6SM BR CLR M14/M15 A3006 RMK AO2 SLP201 I1001 T11391150
KBJJ 142256Z AUTO 29005KT 9SM CLR M12/M14 A3004 RMK AO2 SLP193 T11221139
KBJJ 142156Z AUTO 31006KT 10SM CLR M09/M12 A3001 RMK AO2 SLP180 T10941122
KBJJ 142056Z AUTO 31005KT 10SM FEW022 M06/M10 A3000 RMK AO2 SLP174 60000 T10611100 51010
KBJJ 142044Z AUTO 31005KT 10SM SCT022 M05/M10 A3000 RMK AO2 T10501100
KBJJ 142029Z AUTO 29006KT 10SM BKN023 M05/M10 A3000 RMK AO2 T10501100
KBJJ 141956Z AUTO 29007KT 10SM CLR M06/M10 A2999 RMK AO2 UPE00 SLP171 P0000 T10561100
KBJJ 141914Z AUTO 30006KT 10SM SCT023 M06/M10 A2998 RMK AO2 UPE00 P0000 T10561100
KBJJ 141856Z AUTO 33008KT 10SM UP BKN021 M05/M10 A2998 RMK AO2 UPB51 SLP166 P0000 T10501100
KBJJ 141812Z AUTO 28008KT 7SM SCT020 BKN028 OVC035 M04/M09 A2997 RMK AO2 T10441089
KBJJ 141756Z AUTO 30009KT 10SM SCT025 OVC033 M04/M09 A2997 RMK AO2 SLP161 60000 T10441089 11033 21078 50007
KBJJ 141746Z AUTO 34006KT 10SM BKN029 BKN036 M04/M10 A2997 RMK AO2 T10441100
KBJJ 141656Z AUTO 33005KT 10SM CLR M04/M11 A2999 RMK AO2 SLP169 T10441111
KBJJ 141556Z AUTO 33008KT 10SM CLR M04/M11 A2998 RMK AO2 SLP169 T10441111
KBJJ 141456Z AUTO 32008KT 10SM CLR M06/M11 A2994 RMK AO2 SLP157 60000 T10611106 51046
KBJJ 141356Z AUTO 32007KT 8SM OVC035 M07/M10 A2991 RMK AO2 SNB23E44 SLP144 P0000 T10671100
KBJJ 141256Z AUTO 32007KT 10SM BKN034 M08/M11 A2986 RMK AO2 SLP129 T10781106
KBJJ 141213Z AUTO 34011KT 10SM FEW018 BKN030 M06/M09 A2983 RMK AO2 T10611094
KBJJ 141156Z AUTO 33010KT 10SM SCT018 BKN025 M06/M09 A2980 RMK AO2 UPE1059 SLP109 P0000 60001 70015 T10611089 11006 21061 51063
KBJJ 141147Z AUTO 34012KT 10SM SCT014 OVC025 M06/M09 A2980 RMK AO2 UPE1059 P0000 T10561089
KBJJ 141056Z AUTO 33012KT 9SM UP OVC010 M06/M07 A2975 RMK AO2 PK WND 33028/1006 SNB05E15B21E22B23E31 SLP090 P0000 T10561072
KBJJ 140956Z AUTO 33020G25KT 8SM UP BKN011 OVC020 M04/M06 A2968 RMK AO2 UPB36SNE24 PRESRR SLP065 P0000 T10441061
KBJJ 140947Z AUTO 33014G25KT 8SM UP BKN010 OVC020 M04/M06 A2966 RMK AO2 UPB36SNE24 P0000 T10391056
KBJJ 140928Z AUTO 33015KT 7SM SCT010 OVC020 M04/M06 A2964 RMK AO2 SNE24 P0000 T10391056
KBJJ 140917Z AUTO 33008KT 4SM -SN BR BKN011 BKN018 OVC030 M04/M05 A2963 RMK AO2 P0000 T10391050
KBJJ 140908Z AUTO 32009KT 2SM -SN BR FEW011 BKN023 OVC042 M04/M06 A2962 RMK AO2 P0000 T10391056
KBJJ 140904Z AUTO 32008KT 1 3/4SM -SN BR SCT015 BKN030 OVC039 M04/M06 A2962 RMK AO2 P0000 T10391056
KBJJ 140856Z AUTO 31007KT 2SM -SN BR FEW009 BKN030 OVC048 M04/M06 A2961 RMK AO2 SLP043 P0000 60001 T10441056 51079
KBJJ 140806Z AUTO 32010KT 4SM -SN BR SCT011 OVC036 M04/M06 A2956 RMK AO2 P0000 T10441061
KBJJ 140756Z AUTO 33010KT 3SM -SN BR BKN011 OVC038 M04/M06 A2956 RMK AO2 UPB13E21B40E46SNE13B21E40B46 PRESRR SLP024 P0000 T10441056
KBJJ 140733Z AUTO 33016KT 5SM -SN BR BKN011 BKN021 OVC047 M04/M06 A2952 RMK AO2 UPB13E21SNE13B21 PRESRR P0000 T10391056
KBJJ 140724Z AUTO 32017G23KT 5SM -SN BR SCT011 BKN042 OVC048 M03/M06 A2950 RMK AO2 UPB13E21SNE13B21 PRESRR P0000 T10331056
KBJJ 140716Z AUTO 33014KT 5SM UP BR FEW009 BKN012 OVC046 M03/M05 A2948 RMK AO2 UPB13SNE13 PRESRR P0000 T10281050
KBJJ 140711Z AUTO 33015KT 4SM -SN BR SCT012 BKN016 OVC046 M03/M04 A2947 RMK AO2 PRESRR P0000 T10281044
KBJJ 140656Z AUTO 30015G22KT 2 1/2SM -SN BR FEW008 BKN014 OVC018 M02/M03 A2945 RMK AO2 PK WND 27027/0606 PRESRR SLP985 P0001 T10171033
KBJJ 140648Z AUTO 30017G21KT 2 1/2SM -SN BR SCT009 BKN014 OVC020 M01/M03 A2943 RMK AO2 PK WND 27027/0606 PRESRR P0001 T10111028
KBJJ 140642Z AUTO 30012G25KT 1 1/4SM -SN BR BKN009 OVC014 M01/M02 A2942 RMK AO2 PK WND 27027/0606 PRESRR P0001 T10111022
KBJJ 140627Z AUTO 28017G25KT 1/2SM SN FZFG BKN007 OVC015 M01/M02 A2940 RMK AO2 PK WND 27027/0606 PRESRR P0000 T10111022
KBJJ 140617Z AUTO 28019G26KT 1SM -SN BR FEW008 OVC014 M01/M02 A2939 RMK AO2 PK WND 27027/0606 P0000 T10111022
KBJJ 140605Z AUTO 28016G27KT 1 1/2SM -SN BR FEW010 BKN014 OVC020 M01/M02 A2938 RMK AO2 P0000 T10061022
KBJJ 140556Z AUTO 28020G27KT 1SM -SN BR OVC012 M01/M02 A2937 RMK AO2 PK WND 28027/0556 SLP959 P0002 60010 T10061022 11006 21067 53005
KBJJ 140530Z AUTO 24010KT 1 1/2SM -SN BR OVC013 M03/M04 A2936 RMK AO2 P0001 T10281039
KBJJ 140522Z AUTO 23011KT 1 1/4SM -SN BR FEW008 OVC015 M03/M04 A2936 RMK AO2 P0001 T10281039
KBJJ 140512Z AUTO 22011KT 1 1/2SM -SN BR OVC014 M03/M04 A2935 RMK AO2 P0001 T10331044
KBJJ 140503Z AUTO 23011KT 2SM -SN BR OVC013 M03/M04 A2936 RMK AO2 P0000 T10331044
KBJJ 140456Z AUTO 23011KT 2 1/2SM -SN BR OVC015 M03/M05 A2935 RMK AO2 SLP954 P0001 T10331050 410331100
KBJJ 140446Z AUTO 24009KT 2SM -SN BR BKN013 OVC019 M04/M05 A2935 RMK AO2 P0001 T10391050
KBJJ 140432Z AUTO 22009KT 1 1/2SM -SN BR FEW012 OVC020 M04/M06 A2935 RMK AO2 P0001 T10391056
KBJJ 140423Z AUTO 21011KT 2SM -SN BR BKN020 OVC025 M04/M06 A2935 RMK AO2 P0001 T10441056
KBJJ 140403Z AUTO 21009KT 1 1/4SM -SN BR BKN018 OVC025 M04/M06 A2935 RMK AO2 P0000 T10441056
KBJJ 140356Z AUTO 19009KT 2SM -SN BR BKN019 OVC027 M04/M06 A2935 RMK AO2 SLP954 P0002 T10441056
KBJJ 140347Z AUTO 20009KT 2 1/2SM -SN BR OVC019 M04/M06 A2936 RMK AO2 P0002 T10441056
KBJJ 140338Z AUTO 19007KT 1 1/2SM -SN BR BKN014 OVC021 M05/M06 A2936 RMK AO2 P0002 T10501056
KBJJ 140319Z AUTO 19008KT 1SM -SN BR BKN013 OVC025 M05/M06 A2936 RMK AO2 P0001 T10501061
KBJJ 140256Z AUTO 19009KT 1 1/2SM -SN BR BKN017 OVC025 M05/M06 A2937 RMK AO2 SLP961 P0002 60005 T10501061 56038
KBJJ 140248Z AUTO 18008KT 1 1/2SM -SN BR OVC015 M05/M06 A2937 RMK AO2 P0002 T10501061
KBJJ 140238Z AUTO 17009KT 1 1/2SM -SN BR OVC014 M06/M07 A2938 RMK AO2 P0002 T10561067
KBJJ 140216Z AUTO 17009KT 1SM -SN BR VV014 M06/M07 A2939 RMK AO2 P0001 T10561067
KBJJ 140154Z AUTO 17011KT 1 3/4SM -SN BR FEW014 OVC020 M06/M07 A2940 RMK AO2 SLP972 P0002 T10561072
KBJJ 140153Z AUTO 17011KT 1 3/4SM -SN BR BKN018 OVC024 M06/M07 A2940 RMK AO2 P0002
KBJJ 140143Z AUTO 15014G24KT 3SM -SN BR BKN019 OVC036 M06/M07 A2941 RMK AO2 P0002 T10611072
KBJJ 140132Z AUTO 17008KT 2SM -SN BR BKN016 OVC035 M06/M07 A2942 RMK AO2 P0002 T10611072
KBJJ 140126Z AUTO 15009KT 1 1/4SM -SN BR OVC014 M06/M07 A2942 RMK AO2 PRESFR P0002 T10611072
KBJJ 140117Z AUTO 16009KT 3/4SM -SN BR VV012 M06/M08 A2943 RMK AO2 P0002 T10611078
KBJJ 140106Z AUTO 16009KT 1/2SM SN FZFG VV017 M06/M08 A2944 RMK AO2 P0001 T10611078
KBJJ 140058Z AUTO 16009KT 1SM -SN BR OVC024 M06/M08 A2944 RMK AO2 P0001 T10611078
KBJJ 140056Z AUTO 16008KT 2SM -SN BR OVC027 M06/M08 A2945 RMK AO2 SLP989 P0001 T10611078
KBJJ 140047Z AUTO 16008KT 3SM -SN BR OVC032 M06/M08 A2945 RMK AO2 P0001 T10611078
KBJJ 140032Z AUTO 17009KT 2SM -SN BR OVC026 M07/M08 A2946 RMK AO2 P0001 T10671083
KBJJ 140024Z AUTO 17010KT 1SM -SN BR VV016 M07/M08 A2947 RMK AO2 P0001 T10671083
KBJJ 140007Z AUTO 18009KT 1 1/4SM -SN BR OVC014 M07/M08 A2948 RMK AO2 P0000 T10671083
KBJJ 132356Z AUTO 17009KT 1 1/4SM -SN OVC018 M07/M09 A2949 RMK AO2 SNB42 SLP002 P0001 60004 T10671094 11061 21072 55009
KBJJ 132350Z AUTO 17008KT 1 3/4SM -SN OVC022 M06/M10 A2949 RMK AO2 SNB42 P0000
KBJJ 132345Z AUTO 18009KT 4SM -SN BKN024 OVC055 M06/M10 A2949 RMK AO2 SNB42 P0000 T10611100
KBJJ 132256Z AUTO 17011KT 10SM BKN055 OVC080 M07/M10 A2948 RMK AO2 SLP000 T10671100
KBJJ 132156Z AUTO 17011KT 10SM FEW090 OVC110 M07/M09 A2951 RMK AO2 SLP010 T10671094
KBJJ 132056Z AUTO 15012KT 10SM OVC110 M07/M09 A2952 RMK AO2 SNE03 PRESFR SLP013 P0000 60003 T10721094 58060
KBJJ 131958Z AUTO 17010KT 3SM -SN BR SCT012 OVC080 M07/M09 A2958 RMK AO2 P0000 T10721094
KBJJ 131950Z AUTO 17011KT 1 1/4SM -SN BR BKN012 OVC080 M07/M09 A2959 RMK AO2 P0001
KBJJ 131908Z AUTO 17009KT 1/2SM SN FZFG VV014 M07/M09 A2962 RMK AO2 PRESFR P0000 T10721094
KBJJ 131856Z AUTO 19011KT 1SM -SN BR FEW012 OVC017 M07/M09 A2965 RMK AO2 SLP059 P0002 T10721089
KBJJ 131850Z AUTO 18010KT 1SM -SN BR VV015 M07/M09 A2965 RMK AO2 PRESFR P0002